Shanghai Express — DPCK — position and weather

sailwx.info

Track history (hours):
 
Tides and Currents Weather Stations Pressure Air Temp Water Temp Dewpoint Dewpoint Depression Visibility Wind Speed Wind Dir Waves Ship Positions

Shanghai Express

Last reported at 2014-Sep-14 07:33 UTC. Time now 2014-Sep-20 20:00 UTC.
Position N 01°11' E 103°37'.

Length 320.6 m; beam 42.8 m; draft 14.5 m.

Type: Ship. MMSI: 211367460.

Date/timePositionNaut miles runAvg speedWind from/ knotsBaromVisibWave heightAir tempDewpointWater temp
2014-Sep-14 07:33N 01°11' E 103°37'1515.4
2014-Sep-14 06:33N 01°12' E 103°52'4 3.9
2014-Sep-14 05:33N 01°16' E 103°50'0 0.0
2014-Sep-14 04:33N 01°16' E 103°50'0 0.0
2014-Sep-14 03:32N 01°16' E 103°50'0 0.0
2014-Sep-14 02:32N 01°16' E 103°50'0 0.0
2014-Sep-14 01:32N 01°16' E 103°50'0 0.0
2014-Sep-13 21:33N 01°16' E 103°50'0 0.0
2014-Sep-13 20:29N 01°16' E 103°50'0 0.0
2014-Sep-13 19:32N 01°16' E 103°50'0 0.0
2014-Sep-13 18:31N 01°16' E 103°50'0 0.1
2014-Sep-13 17:33N 01°16' E 103°50'1 0.6
2014-Sep-13 16:28N 01°16' E 103°51'0 0.0
2014-Sep-13 15:34N 01°16' E 103°51'0 0.0
2014-Sep-13 14:33N 01°16' E 103°51'0 0.0
2014-Sep-13 13:33N 01°16' E 103°51'0 0.0
2014-Sep-13 12:31N 01°16' E 103°51'0 0.0
2014-Sep-13 11:33N 01°16' E 103°51'0 0.0
2014-Sep-13 10:33N 01°16' E 103°51'0 0.0
2014-Sep-13 09:30N 01°16' E 103°51'0 0.0
2014-Sep-13 08:33N 01°16' E 103°51'0 0.0
2014-Sep-13 07:32N 01°16' E 103°51'0 0.0
2014-Sep-13 06:32N 01°16' E 103°51'0 0.0
2014-Sep-13 05:28N 01°16' E 103°51'0 0.0
2014-Sep-13 04:22N 01°16' E 103°51'0 0.0
2014-Sep-13 03:33N 01°16' E 103°51'0 0.0
2014-Sep-13 02:33N 01°16' E 103°51'0 0.0
2014-Sep-13 01:33N 01°16' E 103°51'0 0.1
2014-Sep-13 00:33N 01°16' E 103°51'0 0.1
2014-Sep-12 23:32N 01°16' E 103°51'0 0.0
2014-Sep-12 22:32N 01°16' E 103°51'0 0.0
2014-Sep-12 21:31N 01°16' E 103°51'0 0.0
2014-Sep-12 20:31N 01°16' E 103°51'0 0.0
2014-Sep-12 19:30N 01°16' E 103°51'0 0.0
2014-Sep-12 18:33N 01°16' E 103°51'0 0.0
2014-Sep-12 17:32N 01°16' E 103°51'0 0.0
2014-Sep-12 16:32N 01°16' E 103°51'0 0.0
2014-Sep-12 15:32N 01°16' E 103°51'0 0.0
2014-Sep-12 14:31N 01°16' E 103°51'0 0.0
2014-Sep-12 13:30N 01°16' E 103°51'0 0.0
2014-Sep-12 12:30N 01°16' E 103°51'0 0.0
2014-Sep-12 11:23N 01°16' E 103°51'0 0.0
2014-Sep-12 10:29N 01°16' E 103°51'0 0.0
2014-Sep-12 09:29N 01°16' E 103°51'0 0.0
2014-Sep-12 05:06N 01°16' E 103°51'0 0.0
2014-Sep-12 04:14N 01°16' E 103°51'0 0.0
2014-Sep-12 03:32N 01°16' E 103°51'0 0.0
2014-Sep-12 02:11N 01°16' E 103°51'0 0.0
2014-Sep-12 01:22N 01°16' E 103°51'0 0.0
2014-Sep-12 00:33N 01°16' E 103°51'0 0.0
2014-Sep-11 23:26N 01°16' E 103°51'0 0.0
2014-Sep-11 22:33N 01°16' E 103°51'0 0.0
2014-Sep-11 21:32N 01°16' E 103°51'0 0.0
2014-Sep-11 20:32N 01°16' E 103°51'0 0.0
2014-Sep-11 19:32N 01°16' E 103°51'0 0.0
2014-Sep-11 18:31N 01°16' E 103°51'0 0.0
2014-Sep-11 17:31N 01°16' E 103°51'0 0.0
2014-Sep-11 16:27N 01°16' E 103°51'0 0.0
2014-Sep-11 15:33N 01°16' E 103°51'0 0.0
2014-Sep-11 14:29N 01°16' E 103°51'0 0.0
2014-Sep-11 13:32N 01°16' E 103°51'0 0.1
2014-Sep-11 12:31N 01°16' E 103°51'0 0.0
2014-Sep-11 11:31N 01°16' E 103°51'0 0.2
2014-Sep-11 10:21N 01°15' E 103°51'3 3.4
2014-Sep-11 09:33N 01°14' E 103°54'0 0.1
2014-Sep-11 08:33N 01°14' E 103°54'  
Track history (hours):
 
Tides and Currents Weather Stations Pressure Air Temp Water Temp Dewpoint Dewpoint Depression Visibility Wind Speed Wind Dir Waves Ship Positions

Shanghai Express

Last reported at 2014-Sep-14 07:33 UTC. Time now 2014-Sep-20 20:00 UTC.
Position N 01°11' E 103°37'.

Length 320.6 m; beam 42.8 m; draft 14.5 m.

Type: Ship. MMSI: 211367460.

Date/timePositionNaut miles runAvg speedWind from/ knotsBaromVisibWave heightAir tempDewpointWater temp
2014-Sep-14 07:33N 01°11' E 103°37'1515.4
2014-Sep-14 06:33N 01°12' E 103°52'4 3.9
2014-Sep-14 05:33N 01°16' E 103°50'0 0.0
2014-Sep-14 04:33N 01°16' E 103°50'0 0.0
2014-Sep-14 03:32N 01°16' E 103°50'0 0.0
2014-Sep-14 02:32N 01°16' E 103°50'0 0.0
2014-Sep-14 01:32N 01°16' E 103°50'0 0.0
2014-Sep-13 21:33N 01°16' E 103°50'0 0.0
2014-Sep-13 20:29N 01°16' E 103°50'0 0.0
2014-Sep-13 19:32N 01°16' E 103°50'0 0.0
2014-Sep-13 18:31N 01°16' E 103°50'0 0.1
2014-Sep-13 17:33N 01°16' E 103°50'1 0.6
2014-Sep-13 16:28N 01°16' E 103°51'0 0.0
2014-Sep-13 15:34N 01°16' E 103°51'0 0.0
2014-Sep-13 14:33N 01°16' E 103°51'0 0.0
2014-Sep-13 13:33N 01°16' E 103°51'0 0.0
2014-Sep-13 12:31N 01°16' E 103°51'0 0.0
2014-Sep-13 11:33N 01°16' E 103°51'0 0.0
2014-Sep-13 10:33N 01°16' E 103°51'0 0.0
2014-Sep-13 09:30N 01°16' E 103°51'0 0.0
2014-Sep-13 08:33N 01°16' E 103°51'0 0.0
2014-Sep-13 07:32N 01°16' E 103°51'0 0.0
2014-Sep-13 06:32N 01°16' E 103°51'0 0.0
2014-Sep-13 05:28N 01°16' E 103°51'0 0.0
2014-Sep-13 04:22N 01°16' E 103°51'0 0.0
2014-Sep-13 03:33N 01°16' E 103°51'0 0.0
2014-Sep-13 02:33N 01°16' E 103°51'0 0.0
2014-Sep-13 01:33N 01°16' E 103°51'0 0.1
2014-Sep-13 00:33N 01°16' E 103°51'0 0.1
2014-Sep-12 23:32N 01°16' E 103°51'0 0.0
2014-Sep-12 22:32N 01°16' E 103°51'0 0.0
2014-Sep-12 21:31N 01°16' E 103°51'0 0.0
2014-Sep-12 20:31N 01°16' E 103°51'0 0.0
2014-Sep-12 19:30N 01°16' E 103°51'0 0.0
2014-Sep-12 18:33N 01°16' E 103°51'0 0.0
2014-Sep-12 17:32N 01°16' E 103°51'0 0.0
2014-Sep-12 16:32N 01°16' E 103°51'0 0.0
2014-Sep-12 15:32N 01°16' E 103°51'0 0.0
2014-Sep-12 14:31N 01°16' E 103°51'0 0.0
2014-Sep-12 13:30N 01°16' E 103°51'0 0.0
2014-Sep-12 12:30N 01°16' E 103°51'0 0.0
2014-Sep-12 11:23N 01°16' E 103°51'0 0.0
2014-Sep-12 10:29N 01°16' E 103°51'0 0.0
2014-Sep-12 09:29N 01°16' E 103°51'0 0.0
2014-Sep-12 05:06N 01°16' E 103°51'0 0.0
2014-Sep-12 04:14N 01°16' E 103°51'0 0.0
2014-Sep-12 03:32N 01°16' E 103°51'0 0.0
2014-Sep-12 02:11N 01°16' E 103°51'0 0.0
2014-Sep-12 01:22N 01°16' E 103°51'0 0.0
2014-Sep-12 00:33N 01°16' E 103°51'0 0.0
2014-Sep-11 23:26N 01°16' E 103°51'0 0.0
2014-Sep-11 22:33N 01°16' E 103°51'0 0.0
2014-Sep-11 21:32N 01°16' E 103°51'0 0.0
2014-Sep-11 20:32N 01°16' E 103°51'0 0.0
2014-Sep-11 19:32N 01°16' E 103°51'0 0.0
2014-Sep-11 18:31N 01°16' E 103°51'0 0.0
2014-Sep-11 17:31N 01°16' E 103°51'0 0.0
2014-Sep-11 16:27N 01°16' E 103°51'0 0.0
2014-Sep-11 15:33N 01°16' E 103°51'0 0.0
2014-Sep-11 14:29N 01°16' E 103°51'0 0.0
2014-Sep-11 13:32N 01°16' E 103°51'0 0.1
2014-Sep-11 12:31N 01°16' E 103°51'0 0.0
2014-Sep-11 11:31N 01°16' E 103°51'0 0.2
2014-Sep-11 10:21N 01°15' E 103°51'3 3.4
2014-Sep-11 09:33N 01°14' E 103°54'0 0.1
2014-Sep-11 08:33N 01°14' E 103°54'  

Dump ship's entire track history